Time;durP1;ratioP1;P1;durP2;ratioP2;P2;SDS_P1;SDS_P2;PMS_P1;PMS_P2;Temp;Humidity;BMP_temperature;BMP_pressure;BME280_temperature;BME280_humidity;BME280_pressure;Samples;Min_cycle;Max_cycle;Signal;HPM_P1;HPM_P2
2022/07/12 00:01:59;;;;;;;2.83;1.05;;;;;;;13.49;62.40;99142.19;4485521;31;20122;-68
2022/07/12 00:04:36;;;;;;;2.95;1.12;;;;;;;13.49;62.49;99137.72;4485357;31;20103;-68
2022/07/12 00:07:03;;;;;;;2.75;1.00;;;;;;;13.47;62.76;99139.69;4485524;31;20084;-68
2022/07/12 00:09:30;;;;;;;2.47;1.00;;;;;;;13.44;62.95;99144.41;4485301;31;20110;-68
2022/07/12 00:11:57;;;;;;;2.58;1.00;;;;;;;13.41;63.15;99145.50;4485060;32;20081;-68
2022/07/12 00:14:25;;;;;;;3.45;1.08;;;;;;;13.31;63.22;99144.72;4485606;31;20554;-68
2022/07/12 00:16:53;;;;;;;7.65;1.00;;;;;;;13.18;62.91;99145.03;4485462;31;20458;-68
2022/07/12 00:19:20;;;;;;;1.85;1.23;;;;;;;13.16;61.71;99147.00;4485307;31;20097;-68
2022/07/12 00:21:47;;;;;;;2.53;0.80;;;;;;;13.13;61.29;99142.84;4485451;31;20555;-68
2022/07/12 00:24:14;;;;;;;1.42;1.00;;;;;;;13.02;61.33;99148.28;4485464;31;20112;-68
2022/07/12 00:26:42;;;;;;;1.98;0.95;;;;;;;12.95;61.71;99144.56;4485546;31;20378;-68
2022/07/12 00:29:09;;;;;;;3.60;1.00;;;;;;;12.94;61.93;99146.38;4485287;31;20092;-68
2022/07/12 00:31:36;;;;;;;4.30;0.80;;;;;;;12.99;61.99;99145.97;4485601;32;20092;-68
2022/07/12 00:34:03;;;;;;;1.23;0.70;;;;;;;12.92;62.46;99144.84;4485357;32;20096;-68
2022/07/12 00:36:30;;;;;;;3.37;0.90;;;;;;;12.94;62.56;99146.38;4485371;31;20092;-68
2022/07/12 00:38:58;;;;;;;3.47;0.90;;;;;;;12.96;62.44;99147.06;4484180;31;20108;-68
2022/07/12 00:41:25;;;;;;;7.12;1.17;;;;;;;12.91;62.62;99149.31;4484992;32;20092;-68
2022/07/12 00:43:52;;;;;;;6.53;1.55;;;;;;;12.87;62.89;99153.19;4485110;32;20084;-68
2022/07/12 00:46:22;;;;;;;4.97;1.65;;;;;;;12.89;63.10;99151.22;4485182;32;20089;-68
2022/07/12 00:48:50;;;;;;;14.73;2.20;;;;;;;12.89;63.25;99151.22;4485056;31;20176;-68
2022/07/12 00:51:18;;;;;;;5.72;1.60;;;;;;;12.90;63.47;99158.16;4483993;32;20529;-68
2022/07/12 00:53:46;;;;;;;4.32;1.33;;;;;;;12.85;63.79;99160.34;4485090;31;20100;-68
2022/07/12 00:56:14;;;;;;;2.83;1.40;;;;;;;12.82;64.04;99159.81;4469645;32;20468;-68
2022/07/12 00:58:43;;;;;;;2.67;1.27;;;;;;;12.88;64.09;99149.56;4469263;32;20796;-68
2022/07/12 01:01:10;;;;;;;4.62;1.60;;;;;;;12.86;64.19;99145.44;4469334;32;20104;-68
2022/07/12 01:03:38;;;;;;;5.93;1.45;;;;;;;12.81;64.41;99153.75;4469302;32;20127;-68
2022/07/12 01:06:07;;;;;;;2.58;1.30;;;;;;;12.78;64.51;99152.22;4481557;32;20157;-68
2022/07/12 01:08:34;;;;;;;5.03;1.60;;;;;;;12.78;64.63;99148.78;4485220;31;20505;-68
2022/07/12 01:11:02;;;;;;;4.68;1.92;;;;;;;12.78;64.65;99149.59;4484719;31;20108;-68
2022/07/12 01:13:30;;;;;;;6.25;1.37;;;;;;;12.73;64.91;99151.84;4484697;31;20161;-68
2022/07/12 01:15:58;;;;;;;8.30;2.17;;;;;;;12.72;65.01;99146.72;4484903;31;20446;-68
2022/07/12 01:18:27;;;;;;;3.03;1.87;;;;;;;12.73;65.02;99148.34;4483341;32;20084;-68
2022/07/12 01:20:54;;;;;;;5.43;1.80;;;;;;;12.67;65.20;99143.66;4483474;32;20105;-68
2022/07/12 01:23:25;;;;;;;3.72;1.67;;;;;;;12.66;65.37;99142.03;4484869;32;20139;-68
2022/07/12 01:25:52;;;;;;;3.65;1.60;;;;;;;12.56;65.62;99137.59;4484814;31;20460;-68
2022/07/12 01:28:25;;;;;;;4.87;1.70;;;;;;;12.46;66.10;99141.19;4484777;31;20099;-68
2022/07/12 01:30:52;;;;;;;2.15;1.52;;;;;;;12.46;66.17;99139.41;4484557;31;20485;-68
2022/07/12 01:33:20;;;;;;;7.57;1.50;;;;;;;12.47;66.21;99135.00;4484659;32;20097;-68
2022/07/12 01:35:47;;;;;;;7.82;1.33;;;;;;;12.50;66.11;99135.53;4484584;31;20115;-68
2022/07/12 01:38:15;;;;;;;8.13;1.10;;;;;;;12.52;66.10;99138.84;4483416;32;20106;-68
2022/07/12 01:40:43;;;;;;;4.60;1.23;;;;;;;12.62;65.77;99124.87;4483166;32;20088;-68
2022/07/12 01:43:10;;;;;;;3.55;1.10;;;;;;;12.64;65.94;99133.44;4482902;32;20097;-68
2022/07/12 01:45:37;;;;;;;3.85;1.00;;;;;;;12.64;66.09;99131.63;4483222;32;20545;-68
2022/07/12 01:48:04;;;;;;;1.17;0.82;;;;;;;12.72;66.11;99130.94;4484446;32;20102;-68
2022/07/12 01:50:32;;;;;;;6.37;0.82;;;;;;;12.84;65.83;99131.56;4484836;32;20138;-68
2022/07/12 01:53:00;;;;;;;2.08;0.73;;;;;;;12.90;65.68;99121.34;4486483;31;20461;-68
2022/07/12 01:55:28;;;;;;;2.15;0.90;;;;;;;12.87;65.94;99126.88;4486322;31;20123;-68
2022/07/12 01:57:56;;;;;;;3.05;1.10;;;;;;;12.98;65.75;99133.78;4486432;31;20501;-68
2022/07/12 02:00:23;;;;;;;1.87;0.70;;;;;;;13.04;65.50;99119.22;4486364;31;20088;-68
2022/07/12 02:02:50;;;;;;;1.50;0.70;;;;;;;13.04;65.46;99125.28;4486319;31;20092;-68
2022/07/12 02:05:18;;;;;;;2.35;0.85;;;;;;;13.08;65.35;99129.31;4486308;32;20539;-68
2022/07/12 02:07:46;;;;;;;4.05;0.88;;;;;;;13.10;65.37;99127.34;4486254;32;20118;-68
2022/07/12 02:10:13;;;;;;;0.70;0.70;;;;;;;13.10;65.36;99121.28;4486309;31;20482;-68
2022/07/12 02:12:41;;;;;;;0.60;0.50;;;;;;;13.18;65.05;99123.19;4485916;32;20157;-68
2022/07/12 02:15:08;;;;;;;2.35;0.80;;;;;;;13.25;64.69;99114.56;4486206;32;20115;-68
2022/07/12 02:17:36;;;;;;;1.42;0.77;;;;;;;13.30;64.54;99122.81;4486023;31;20100;-68
2022/07/12 02:20:03;;;;;;;2.50;0.90;;;;;;;13.32;64.35;99123.53;4486075;31;20525;-68
2022/07/12 02:22:31;;;;;;;0.90;0.70;;;;;;;13.25;64.57;99127.72;4486077;31;20093;-68
2022/07/12 02:24:58;;;;;;;1.62;0.60;;;;;;;13.25;64.57;99121.62;4486176;32;20095;-68
2022/07/12 02:27:26;;;;;;;1.40;0.70;;;;;;;13.17;64.86;99122.34;4486318;32;20103;-68
2022/07/12 02:29:53;;;;;;;3.10;0.65;;;;;;;13.15;65.02;99129.53;4486173;31;20088;-68
2022/07/12 02:32:20;;;;;;;1.65;0.60;;;;;;;13.09;65.34;99127.50;4486143;32;20100;-68
2022/07/12 02:34:48;;;;;;;0.95;0.62;;;;;;;13.03;65.59;99128.88;4486111;32;20094;-68
2022/07/12 02:37:15;;;;;;;2.42;0.60;;;;;;;13.10;65.45;99129.16;4486436;31;20120;-68
2022/07/12 02:39:42;;;;;;;1.23;0.55;;;;;;;13.13;65.32;99131.50;4486004;31;20085;-68
2022/07/12 02:42:10;;;;;;;1.50;0.70;;;;;;;13.11;65.38;99133.44;4485612;32;20477;-68
2022/07/12 02:44:37;;;;;;;1.87;0.65;;;;;;;13.08;65.48;99134.56;4486022;32;20555;-68
2022/07/12 02:47:04;;;;;;;0.77;0.50;;;;;;;13.00;65.83;99131.00;4485861;31;20110;-68
2022/07/12 02:49:31;;;;;;;1.35;0.70;;;;;;;13.02;65.87;99136.94;4484752;32;20115;-68
2022/07/12 02:51:58;;;;;;;1.92;0.70;;;;;;;12.95;66.14;99140.13;4485884;31;20439;-70
2022/07/12 02:54:25;;;;;;;3.00;0.80;;;;;;;12.89;66.38;99134.63;4485977;32;20151;-70
2022/07/12 02:56:53;;;;;;;1.98;0.70;;;;;;;12.83;66.60;99138.66;4486194;32;20547;-70
2022/07/12 02:59:20;;;;;;;1.75;0.90;;;;;;;12.81;66.78;99142.38;4485731;32;20092;-70
2022/07/12 03:01:47;;;;;;;4.00;0.70;;;;;;;12.76;67.11;99142.81;4485220;31;20096;-70
2022/07/12 03:04:14;;;;;;;1.23;1.10;;;;;;;12.76;67.11;99148.06;4485740;31;20476;-70
2022/07/12 03:06:41;;;;;;;5.18;1.05;;;;;;;12.72;67.33;99144.09;4485785;32;20106;-70
2022/07/12 03:09:08;;;;;;;2.50;0.95;;;;;;;12.77;67.27;99147.09;4485857;32;20449;-70
2022/07/12 03:11:36;;;;;;;1.60;0.90;;;;;;;12.75;67.36;99151.69;4485633;31;20135;-70
2022/07/12 03:14:03;;;;;;;0.93;0.65;;;;;;;12.73;67.50;99150.97;4485763;32;20119;-70
2022/07/12 03:16:30;;;;;;;2.47;0.75;;;;;;;12.72;67.54;99149.34;4485789;31;20092;-70
2022/07/12 03:18:57;;;;;;;2.65;0.70;;;;;;;12.68;67.78;99156.66;4485641;32;20091;-70
2022/07/12 03:21:24;;;;;;;0.77;0.50;;;;;;;12.68;67.91;99148.78;4485661;32;20115;-70
2022/07/12 03:23:51;;;;;;;1.00;0.77;;;;;;;12.69;67.90;99154.87;4485753;31;20092;-70
2022/07/12 03:26:20;;;;;;;1.40;0.60;;;;;;;12.66;68.03;99155.16;4485686;32;20088;-70
2022/07/12 03:28:47;;;;;;;1.10;1.00;;;;;;;12.75;67.83;99159.56;4485552;31;20552;-70
2022/07/12 03:31:14;;;;;;;2.35;0.90;;;;;;;12.86;67.30;99162.03;4485768;32;20089;-70
2022/07/12 03:33:42;;;;;;;1.90;0.73;;;;;;;13.04;66.69;99158.66;4485534;32;20120;-70
2022/07/12 03:36:09;;;;;;;4.65;0.90;;;;;;;13.16;66.05;99162.78;4485632;32;20100;-70
2022/07/12 03:38:39;;;;;;;2.30;0.70;;;;;;;13.25;65.80;99163.72;4485646;32;20088;-70
2022/07/12 03:41:07;;;;;;;1.75;0.77;;;;;;;13.36;65.53;99173.25;4485561;32;20120;-70
2022/07/12 03:43:34;;;;;;;2.08;0.60;;;;;;;13.41;65.22;99165.75;4485305;32;20096;-70
2022/07/12 03:46:01;;;;;;;1.05;0.60;;;;;;;13.54;64.76;99166.25;4485540;31;20118;-70
2022/07/12 03:48:29;;;;;;;1.45;0.73;;;;;;;13.56;64.52;99163.47;4485616;31;20112;-70
2022/07/12 03:50:56;;;;;;;3.03;0.93;;;;;;;13.58;64.46;99161.50;4485501;31;20092;-70
2022/07/12 03:53:23;;;;;;;1.35;0.55;;;;;;;13.69;64.00;99153.41;4485582;32;20093;-70
2022/07/12 03:55:50;;;;;;;0.90;0.60;;;;;;;13.73;64.01;99159.22;4485472;32;20100;-70
2022/07/12 03:58:17;;;;;;;0.75;0.70;;;;;;;13.80;63.86;99170.81;4485575;31;20100;-70
2022/07/12 04:00:44;;;;;;;9.02;1.48;;;;;;;13.83;63.70;99167.88;4485671;31;20092;-70
2022/07/12 04:03:12;;;;;;;0.73;0.70;;;;;;;13.90;63.41;99173.38;4485555;31;20104;-70
2022/07/12 04:05:39;;;;;;;3.40;0.80;;;;;;;13.94;63.31;99161.56;4485575;31;20126;-70
2022/07/12 04:08:06;;;;;;;6.62;0.95;;;;;;;14.01;63.12;99167.91;4485428;31;20096;-70
2022/07/12 04:10:34;;;;;;;2.35;0.80;;;;;;;14.17;62.51;99172.50;4485417;31;20910;-70
2022/07/12 04:13:01;;;;;;;0.95;0.85;;;;;;;14.13;62.49;99166.72;4485040;32;20110;-70
2022/07/12 04:15:28;;;;;;;2.45;0.80;;;;;;;14.19;62.38;99170.56;4485270;32;20449;-70
2022/07/12 04:17:56;;;;;;;1.77;0.98;;;;;;;14.19;62.43;99170.56;4485281;32;20153;-70
2022/07/12 04:20:23;;;;;;;1.92;0.93;;;;;;;14.29;62.04;99173.09;4485226;32;20092;-70
2022/07/12 04:22:50;;;;;;;1.30;0.80;;;;;;;14.14;62.52;99180.69;4485321;31;20510;-70
2022/07/12 04:25:18;;;;;;;2.55;1.08;;;;;;;14.17;62.45;99180.41;4485326;32;20115;-70
2022/07/12 04:27:45;;;;;;;1.40;0.93;;;;;;;14.22;62.27;99180.78;4485238;31;20089;-70
2022/07/12 04:30:12;;;;;;;3.80;0.90;;;;;;;14.21;62.28;99189.66;4485141;32;20101;-70
2022/07/12 04:32:40;;;;;;;0.93;0.82;;;;;;;14.25;62.33;99187.59;4485243;32;20100;-70
2022/07/12 04:35:07;;;;;;;2.40;1.00;;;;;;;14.34;62.15;99184.03;4485168;31;20088;-70
2022/07/12 04:37:34;;;;;;;1.48;0.70;;;;;;;14.38;61.93;99183.59;4485238;31;20107;-70
2022/07/12 04:40:02;;;;;;;5.37;0.82;;;;;;;14.49;61.54;99182.53;4485047;32;20135;-70
2022/07/12 04:42:29;;;;;;;2.92;0.75;;;;;;;14.66;61.12;99188.78;4484891;31;20100;-70
2022/07/12 04:44:56;;;;;;;1.58;0.73;;;;;;;14.89;60.61;99183.00;4485172;31;20160;-70
2022/07/12 04:47:24;;;;;;;1.05;0.60;;;;;;;15.03;60.04;99186.88;4485043;32;20084;-70
2022/07/12 04:49:51;;;;;;;1.95;0.90;;;;;;;15.16;59.63;99186.47;4485137;31;20113;-70
2022/07/12 04:52:18;;;;;;;1.27;0.70;;;;;;;15.35;59.16;99173.06;4485132;31;20097;-70
2022/07/12 04:54:46;;;;;;;4.50;0.70;;;;;;;15.51;58.33;99185.50;4485078;31;20501;-70
2022/07/12 04:57:13;;;;;;;2.20;0.70;;;;;;;15.58;58.15;99185.69;4485093;31;20111;-70
2022/07/12 04:59:41;;;;;;;0.95;0.60;;;;;;;15.73;57.50;99183.25;4484992;31;20855;-70
2022/07/12 05:02:08;;;;;;;2.40;0.70;;;;;;;15.77;57.23;99177.50;4485099;32;20092;-70
2022/07/12 05:04:35;;;;;;;1.62;0.62;;;;;;;15.87;57.14;99177.41;4484290;31;20088;-70
2022/07/12 05:07:02;;;;;;;1.87;0.75;;;;;;;15.98;56.56;99176.25;4483112;32;20093;-70
2022/07/12 05:09:30;;;;;;;1.65;0.80;;;;;;;16.07;56.30;99180.56;4484990;31;20101;-70
2022/07/12 05:11:57;;;;;;;4.30;0.80;;;;;;;16.18;55.92;99182.06;4484279;31;20092;-70
2022/07/12 05:14:24;;;;;;;1.85;0.70;;;;;;;16.36;55.27;99181.94;4484977;31;20529;-70
2022/07/12 05:16:52;;;;;;;1.55;0.60;;;;;;;16.46;54.93;99182.59;4484883;31;20554;-70
2022/07/12 05:19:19;;;;;;;1.00;0.75;;;;;;;16.50;54.98;99183.94;4484868;31;20100;-70
2022/07/12 05:21:46;;;;;;;1.73;0.90;;;;;;;16.56;54.44;99186.91;4484523;31;20806;-70
2022/07/12 05:24:13;;;;;;;2.15;0.77;;;;;;;16.54;54.99;99183.59;4484702;32;20156;-70
2022/07/12 05:26:41;;;;;;;5.50;0.93;;;;;;;16.75;54.39;99191.84;4484117;31;20123;-70
2022/07/12 05:29:08;;;;;;;3.17;0.90;;;;;;;16.81;53.84;99196.47;4484512;31;20164;-70
2022/07/12 05:31:35;;;;;;;2.85;0.70;;;;;;;16.92;54.12;99192.69;4484736;32;20111;-70
2022/07/12 05:34:03;;;;;;;3.65;1.00;;;;;;;16.83;53.87;99194.47;4483766;31;20500;-70
2022/07/12 05:36:30;;;;;;;0.80;0.80;;;;;;;16.99;54.12;99193.69;4484540;31;20092;-70
2022/07/12 05:38:57;;;;;;;3.10;1.10;;;;;;;17.09;53.57;99196.13;4483325;32;20157;-70
2022/07/12 05:41:24;;;;;;;2.00;1.30;;;;;;;17.28;53.17;99194.13;4484229;31;20127;-70
2022/07/12 05:43:52;;;;;;;2.10;0.70;;;;;;;17.51;52.74;99192.37;4484557;31;20113;-70
2022/07/12 05:46:19;;;;;;;2.83;0.93;;;;;;;17.70;51.88;99191.16;4484020;32;20115;-71
2022/07/12 05:48:46;;;;;;;2.00;0.73;;;;;;;17.97;51.87;99199.66;4484491;31;20152;-70
2022/07/12 05:53:59;;;;;;;3.15;1.15;;;;;;;18.37;50.29;99192.44;4482271;32;20533;-71
2022/07/12 05:56:26;;;;;;;2.78;1.20;;;;;;;18.35;50.32;99191.78;4483125;32;20145;-71
2022/07/12 05:58:54;;;;;;;1.87;0.90;;;;;;;18.66;50.54;99190.06;4483989;31;20097;-71
2022/07/12 06:01:21;;;;;;;3.40;0.88;;;;;;;19.24;49.48;99199.16;4484216;31;20131;-70
2022/07/12 06:03:48;;;;;;;9.38;0.90;;;;;;;19.43;48.47;99203.09;4483794;32;20092;-71
2022/07/12 06:06:15;;;;;;;3.22;1.00;;;;;;;19.13;49.31;99196.94;4474007;32;20100;-71
2022/07/12 06:08:42;;;;;;;2.45;1.10;;;;;;;19.09;49.44;99195.66;4476946;31;20131;-71
2022/07/12 06:11:10;;;;;;;6.65;1.20;;;;;;;19.18;49.74;99191.91;4482506;32;20168;-71
2022/07/12 06:13:37;;;;;;;3.00;1.05;;;;;;;19.33;48.67;99187.44;4476677;32;20096;-71
2022/07/12 06:16:05;;;;;;;4.30;1.17;;;;;;;19.58;48.34;99188.97;4481185;31;20111;-71
2022/07/12 06:18:36;;;;;;;2.75;0.88;;;;;;;19.55;48.11;99174.22;4483232;31;20097;-71
2022/07/12 06:21:04;;;;;;;4.45;1.00;;;;;;;19.77;47.95;99180.47;4482866;31;20096;-71
2022/07/12 06:23:31;;;;;;;4.32;1.10;;;;;;;19.79;48.17;99174.97;4481459;32;20104;-71
2022/07/12 06:25:58;;;;;;;1.77;0.80;;;;;;;19.80;48.30;99172.09;4483012;32;20132;-70
2022/07/12 06:28:26;;;;;;;6.25;0.90;;;;;;;20.14;47.84;99172.47;4483057;31;20489;-70
2022/07/12 06:30:56;;;;;;;2.37;0.77;;;;;;;20.22;46.99;99180.31;4481721;32;20157;-70
2022/07/12 06:33:23;;;;;;;6.03;0.90;;;;;;;20.27;46.62;99174.41;4483109;32;20120;-71
2022/07/12 06:35:50;;;;;;;1.45;0.70;;;;;;;20.58;46.27;99179.41;4478247;31;20100;-71
2022/07/12 06:38:18;;;;;;;1.65;0.60;;;;;;;20.70;45.05;99182.41;4469327;32;20114;-71
2022/07/12 06:40:45;;;;;;;4.57;0.68;;;;;;;20.52;44.90;99173.00;4483307;32;20495;-71
2022/07/12 06:43:13;;;;;;;1.35;0.60;;;;;;;20.22;44.13;99180.31;4484741;31;20107;-71
2022/07/12 06:45:41;;;;;;;3.60;0.85;;;;;;;20.37;44.50;99189.06;4485095;31;20088;-71
2022/07/12 06:48:08;;;;;;;2.72;0.65;;;;;;;20.52;44.84;99185.50;4485774;31;20743;-71
2022/07/12 06:50:35;;;;;;;1.62;0.62;;;;;;;20.71;44.40;99176.91;4485785;31;20600;-72
2022/07/12 06:53:03;;;;;;;4.18;1.33;;;;;;;20.94;43.45;99181.16;4485199;31;20570;-71
2022/07/12 06:55:30;;;;;;;4.07;0.62;;;;;;;20.49;44.06;99191.22;4484023;31;20092;-71
2022/07/12 06:57:58;;;;;;;6.18;0.60;;;;;;;20.23;44.06;99175.81;4483436;31;20092;-71
2022/07/12 07:00:25;;;;;;;4.32;1.37;;;;;;;20.06;44.70;99178.72;4485074;31;20164;-71
2022/07/12 07:02:52;;;;;;;7.70;0.93;;;;;;;20.00;45.21;99182.97;4484753;31;20116;-71
2022/07/12 07:05:20;;;;;;;1.52;0.82;;;;;;;20.12;44.85;99185.94;4484912;31;20525;-70
2022/07/12 07:07:47;;;;;;;3.03;0.80;;;;;;;20.03;44.86;99187.91;4482171;31;20161;-71
2022/07/12 07:10:15;;;;;;;3.08;0.70;;;;;;;20.43;44.89;99184.00;4482892;32;20104;-69
2022/07/12 07:12:42;;;;;;;5.82;1.17;;;;;;;20.18;45.46;99187.00;4483184;31;20439;-69
2022/07/12 07:15:09;;;;;;;4.15;0.70;;;;;;;20.41;44.10;99186.00;4483734;32;20894;-69
2022/07/12 07:17:37;;;;;;;2.55;0.50;;;;;;;20.49;44.25;99185.91;4482641;32;20132;-69
2022/07/12 07:20:04;;;;;;;1.58;0.65;;;;;;;20.56;43.67;99192.09;4485105;31;20111;-69
2022/07/12 07:22:32;;;;;;;2.45;0.82;;;;;;;20.79;42.94;99193.72;4485496;31;20108;-69
2022/07/12 07:24:59;;;;;;;2.92;0.80;;;;;;;21.12;43.30;99195.81;4485537;31;20111;-69
2022/07/12 07:27:26;;;;;;;2.05;0.88;;;;;;;21.06;42.57;99198.25;4483329;32;20100;-69
2022/07/12 07:32:39;;;;;;;5.30;0.98;;;;;;;22.06;40.82;99200.59;4485318;32;20080;-69
2022/07/12 07:35:07;;;;;;;5.68;1.33;;;;;;;22.06;41.12;99202.41;4484372;32;20077;-70
2022/07/12 07:37:34;;;;;;;5.32;1.00;;;;;;;21.97;41.33;99185.81;4484388;31;20107;-69
2022/07/12 07:40:02;;;;;;;10.75;1.25;;;;;;;22.40;40.23;99192.69;4484865;31;20100;-70
2022/07/12 07:42:29;;;;;;;3.60;1.12;;;;;;;22.22;39.33;99187.91;4484878;31;20084;-69
2022/07/12 07:44:56;;;;;;;4.43;1.27;;;;;;;22.36;40.02;99200.25;4485626;31;20115;-69
2022/07/12 07:47:48;;;;;;;2.45;0.98;;;;;;;22.21;40.26;99188.91;4483221;32;20108;-70
2022/07/12 07:50:36;;;;;;;1.35;0.65;;;;;;;21.91;40.47;99197.28;4485213;32;20119;-70
2022/07/12 07:53:04;;;;;;;5.07;0.98;;;;;;;22.05;40.88;99198.94;4485173;31;20119;-70
2022/07/12 07:55:32;;;;;;;2.25;1.12;;;;;;;21.95;40.73;99188.66;4483891;31;20446;-70
2022/07/12 07:58:00;;;;;;;4.53;1.08;;;;;;;21.87;40.76;99196.03;4483268;32;20592;-70
2022/07/12 08:00:28;;;;;;;4.37;0.90;;;;;;;21.62;41.26;99192.03;4484408;31;20100;-70
2022/07/12 08:02:56;;;;;;;1.42;0.90;;;;;;;21.70;41.82;99193.69;4483025;32;20107;-70
2022/07/12 08:05:23;;;;;;;2.12;0.77;;;;;;;21.99;40.23;99197.09;4483774;31;20118;-70
2022/07/12 08:07:56;;;;;;;2.00;0.90;;;;;;;22.09;40.14;99196.69;4483259;32;20095;-70
2022/07/12 08:10:25;;;;;;;2.50;0.77;;;;;;;22.09;39.48;99197.53;4483920;31;20100;-70
2022/07/12 08:12:52;;;;;;;2.78;0.80;;;;;;;22.19;39.52;99207.00;4483472;32;20092;-70
2022/07/12 08:15:19;;;;;;;0.75;0.60;;;;;;;21.93;39.77;99198.69;4484219;32;20123;-70
2022/07/12 08:17:46;;;;;;;4.15;0.90;;;;;;;22.35;39.76;99198.63;4469257;32;20096;-69
2022/07/12 08:20:22;;;;;;;8.38;0.73;;;;;;;21.97;39.78;99199.94;4483166;32;20157;-72
2022/07/12 08:23:09;;;;;;;4.12;1.52;;;;;;;21.99;39.72;99205.09;4477694;32;20410;-72
2022/07/12 08:25:37;;;;;;;2.70;0.90;;;;;;;21.53;41.04;99209.22;4484044;32;20111;-72
2022/07/12 08:28:04;;;;;;;1.87;0.70;;;;;;;21.31;40.86;99205.78;4483919;31;20141;-71
2022/07/12 08:30:31;;;;;;;1.33;0.80;;;;;;;21.23;41.68;99214.75;4484121;31;20102;-70
2022/07/12 08:32:59;;;;;;;2.00;0.80;;;;;;;21.08;42.39;99198.06;4484524;32;20108;-70
2022/07/12 08:35:27;;;;;;;2.30;0.90;;;;;;;21.33;41.55;99206.38;4484562;31;20100;-70
2022/07/12 08:37:54;;;;;;;2.17;0.73;;;;;;;21.44;41.22;99205.84;4485254;31;20092;-70
2022/07/12 08:40:22;;;;;;;1.85;0.80;;;;;;;21.51;40.68;99211.22;4484360;31;20088;-70
2022/07/12 08:42:49;;;;;;;3.78;0.93;;;;;;;21.54;40.67;99202.84;4484814;31;20159;-70
2022/07/12 08:45:16;;;;;;;1.42;0.70;;;;;;;21.49;40.82;99197.25;4483721;31;20161;-69
2022/07/12 08:47:44;;;;;;;3.78;1.73;;;;;;;21.69;40.38;99205.38;4478704;32;20104;-70
2022/07/12 08:50:12;;;;;;;1.58;0.93;;;;;;;21.69;41.03;99197.38;4484402;31;20488;-69
2022/07/12 08:52:44;;;;;;;2.05;1.12;;;;;;;21.87;39.85;99196.03;4484099;31;20152;-69
2022/07/12 08:55:18;;;;;;;2.45;0.70;;;;;;;21.50;40.52;99198.94;4484228;31;20445;-69
2022/07/12 08:57:45;;;;;;;3.87;1.20;;;;;;;21.81;40.18;99189.62;4483537;32;20096;-69
2022/07/12 09:00:13;;;;;;;4.35;0.70;;;;;;;21.97;39.58;99183.94;4483273;32;20175;-70
2022/07/12 09:02:47;;;;;;;51.25;6.07;;;;;;;21.90;39.69;99187.63;4485314;31;20116;-70
2022/07/12 09:05:36;;;;;;;1.23;0.60;;;;;;;22.23;39.86;99185.03;4478560;31;20141;-70
2022/07/12 09:08:08;;;;;;;0.82;0.62;;;;;;;22.21;39.29;99187.09;4481787;32;20112;-69
2022/07/12 09:10:49;;;;;;;3.58;0.77;;;;;;;22.30;38.83;99177.03;4477588;32;20116;-70
2022/07/12 09:13:16;;;;;;;1.87;0.80;;;;;;;21.92;39.09;99180.22;4483287;31;20100;-70
2022/07/12 09:15:46;;;;;;;1.60;0.60;;;;;;;22.48;39.46;99184.47;4482052;31;20092;-70
2022/07/12 09:18:16;;;;;;;3.05;0.70;;;;;;;22.57;38.29;99185.09;4477839;31;166737;-70
2022/07/12 09:21:03;;;;;;;2.83;0.65;;;;;;;22.92;38.04;99176.84;4484463;32;20100;-70
2022/07/12 09:23:57;;;;;;;2.72;0.77;;;;;;;23.12;36.97;99175.00;4484869;32;20144;-70
2022/07/12 09:26:44;;;;;;;;;;;;;;;22.92;37.04;99187.53;4485115;32;20096;-70
2022/07/12 09:29:32;;;;;;;0.40;0.40;;;;;;;22.96;36.82;99180.75;4484391;32;19972;-70
2022/07/12 09:38:31;;;;;;;7.00;0.70;;;;;;;22.99;36.73;99161.66;4484924;32;20085;-70
2022/07/12 09:41:19;;;;;;;1.60;0.50;;;;;;;23.38;35.82;99181.31;4483008;32;20172;-69
2022/07/12 09:44:07;;;;;;;2.17;0.32;;;;;;;23.49;35.29;99164.59;4484513;32;20104;-69
2022/07/12 09:46:54;;;;;;;2.30;0.47;;;;;;;23.38;35.67;99166.09;4484487;32;20096;-69
2022/07/12 09:49:42;;;;;;;1.35;0.50;;;;;;;23.36;35.17;99176.19;4483102;32;20112;-69
2022/07/12 09:52:32;;;;;;;5.20;2.22;;;;;;;23.27;35.90;99177.44;4484767;32;20107;-69
2022/07/12 09:55:23;;;;;;;1.42;0.70;;;;;;;23.37;35.69;99171.66;4473301;32;20143;-69
2022/07/12 09:58:12;;;;;;;2.95;0.60;;;;;;;23.05;36.24;99179.50;4478668;32;20130;-69
2022/07/12 10:01:02;;;;;;;1.50;0.50;;;;;;;23.07;34.28;99177.44;4482385;32;20096;-70
2022/07/12 10:03:51;;;;;;;1.48;0.55;;;;;;;22.93;35.88;99163.28;4484432;32;20100;-69
2022/07/12 10:06:37;;;;;;;3.47;0.60;;;;;;;23.08;35.71;99164.91;4469426;32;20089;-69
2022/07/12 10:09:26;;;;;;;3.95;0.50;;;;;;;23.06;35.89;99165.13;4483190;32;20156;-69
2022/07/12 10:11:55;;;;;;;1.92;0.70;;;;;;;23.50;34.62;99166.25;4484717;31;20088;-70
2022/07/12 10:14:28;;;;;;;1.55;0.50;;;;;;;23.72;34.04;99153.41;4486236;31;20142;-69
2022/07/12 10:16:56;;;;;;;10.57;1.00;;;;;;;24.02;32.55;99154.72;4484516;32;20100;-69
2022/07/12 10:19:35;;;;;;;3.70;0.60;;;;;;;23.65;33.29;99163.31;4486123;31;20791;-69
2022/07/12 10:22:05;;;;;;;2.50;0.57;;;;;;;23.90;33.84;99154.56;4485840;32;20153;-69
2022/07/12 10:24:32;;;;;;;3.28;0.50;;;;;;;23.65;34.71;99151.78;4486056;31;20131;-69
2022/07/12 10:27:00;;;;;;;3.62;0.50;;;;;;;23.52;34.89;99147.34;4486128;31;20092;-69
2022/07/12 10:29:27;;;;;;;3.58;0.65;;;;;;;23.39;34.83;99164.22;4485610;32;20092;-69
2022/07/12 10:31:54;;;;;;;0.70;0.60;;;;;;;23.21;35.61;99163.06;4485861;31;20089;-69
2022/07/12 10:34:23;;;;;;;5.50;0.77;;;;;;;23.30;35.77;99154.81;4484702;32;20135;-69
2022/07/12 10:36:53;;;;;;;1.45;0.50;;;;;;;23.53;34.92;99146.31;4486009;31;20092;-69
2022/07/12 10:39:40;;;;;;;2.03;0.80;;;;;;;24.07;34.23;99146.84;4478869;32;20112;-69
2022/07/12 10:42:08;;;;;;;2.33;0.60;;;;;;;24.14;34.07;99134.25;4484432;32;20104;-69
2022/07/12 10:44:44;;;;;;;2.37;0.75;;;;;;;24.20;33.66;99122.69;4486167;31;20615;-69
2022/07/12 10:47:13;;;;;;;3.37;0.62;;;;;;;24.12;33.53;99133.66;4485821;31;20100;-69
2022/07/12 10:49:46;;;;;;;1.45;0.50;;;;;;;23.77;33.94;99142.09;4485236;31;20479;-69
2022/07/12 10:52:16;;;;;;;8.85;0.85;;;;;;;23.14;34.83;99162.25;4484610;31;20518;-69
2022/07/12 10:55:06;;;;;;;1.92;0.65;;;;;;;22.58;38.71;99162.72;4479273;31;20119;-70
2022/07/12 10:57:50;;;;;;;2.50;0.65;;;;;;;21.49;47.72;99178.59;4469566;32;20101;-70
2022/07/12 11:00:19;;;;;;;5.35;0.82;;;;;;;20.50;51.56;99184.84;4469631;32;20566;-70
2022/07/12 11:02:46;;;;;;;4.95;0.90;;;;;;;20.16;52.80;99179.22;4469802;32;20116;-70
2022/07/12 11:05:14;;;;;;;2.85;1.00;;;;;;;20.18;55.11;99179.88;4475783;32;20109;-69
2022/07/12 11:07:41;;;;;;;3.78;1.20;;;;;;;20.29;55.00;99175.88;4484824;31;20118;-69
2022/07/12 11:10:11;;;;;;;1.62;0.77;;;;;;;20.38;54.40;99182.72;4483707;32;20110;-69
2022/07/12 11:12:39;;;;;;;3.12;0.68;;;;;;;20.94;53.76;99170.50;4485101;31;20503;-69
2022/07/12 11:15:06;;;;;;;3.65;0.90;;;;;;;21.60;51.37;99161.25;4485137;32;20157;-70
2022/07/12 11:17:34;;;;;;;0.98;0.70;;;;;;;21.89;48.71;99164.63;4485342;31;20101;-69
2022/07/12 11:20:19;;;;;;;2.40;0.80;;;;;;;21.97;46.16;99157.25;4485283;32;20163;-70
2022/07/12 11:22:48;;;;;;;5.10;0.77;;;;;;;22.18;43.05;99163.47;4485722;32;20085;-70
2022/07/12 11:25:15;;;;;;;1.33;0.68;;;;;;;22.60;40.35;99157.97;4485479;31;20100;-69
2022/07/12 11:27:45;;;;;;;6.15;0.70;;;;;;;22.78;38.21;99149.34;4486008;31;20096;-69
2022/07/12 11:30:13;;;;;;;3.10;0.52;;;;;;;23.04;37.07;99143.12;4484609;32;20159;-69
2022/07/12 11:32:43;;;;;;;1.70;0.73;;;;;;;23.79;35.99;99126.63;4485715;31;20141;-69
2022/07/12 11:35:21;;;;;;;1.35;0.55;;;;;;;24.12;34.89;99128.31;4485696;31;20151;-70
2022/07/12 11:37:50;;;;;;;1.37;0.52;;;;;;;24.58;35.69;99123.66;4485755;31;20115;-70
2022/07/12 11:40:22;;;;;;;1.37;0.70;;;;;;;24.47;34.74;99133.19;4485445;31;20389;-70
2022/07/12 11:42:58;;;;;;;2.90;0.70;;;;;;;23.77;35.33;99131.38;4485161;32;20081;-69
2022/07/12 11:45:32;;;;;;;2.83;0.50;;;;;;;23.45;36.64;99136.69;4485450;31;20085;-69
2022/07/12 11:48:02;;;;;;;0.50;0.40;;;;;;;23.98;34.69;99138.28;4485684;31;20084;-69
2022/07/12 11:50:30;;;;;;;1.85;0.60;;;;;;;24.13;33.91;99123.75;4485248;31;20084;-69
2022/07/12 11:53:03;;;;;;;2.95;0.75;;;;;;;24.33;34.50;99119.09;4485501;32;20077;-69
2022/07/12 11:55:31;;;;;;;2.17;0.77;;;;;;;24.48;33.25;99113.38;4485590;32;20166;-69
2022/07/12 11:58:05;;;;;;;0.73;0.60;;;;;;;24.42;31.98;99109.75;4485662;31;20453;-69